createdAt,value
2018-04-28T00:00:46.799Z,7.33
2018-04-28T00:03:23.704Z,7.23
2018-04-28T00:06:01.073Z,8.37
2018-04-28T00:08:38.400Z,7.47
2018-04-28T00:11:15.518Z,8.83
2018-04-28T00:13:52.886Z,8.57
2018-04-28T00:16:33.744Z,9.13
2018-04-28T00:19:10.844Z,11.40
2018-04-28T00:21:47.964Z,10.83
2018-04-28T00:24:26.102Z,10.07
2018-04-28T00:27:06.211Z,9.80
2018-04-28T00:29:43.382Z,10.70
2018-04-28T00:32:20.730Z,9.47
2018-04-28T00:34:57.980Z,10.70
2018-04-28T00:37:34.897Z,11.30
2018-04-28T00:40:16.244Z,12.20
2018-04-28T00:42:54.069Z,11.77
2018-04-28T00:45:31.136Z,11.60
2018-04-28T00:48:13.871Z,11.37
2018-04-28T00:50:50.565Z,7.83
2018-04-28T00:53:27.274Z,4.90
2018-04-28T00:56:06.199Z,6.07
2018-04-28T00:58:46.270Z,6.30
2018-04-28T01:01:23.238Z,6.17
2018-04-28T01:04:02.928Z,6.07
2018-04-28T01:06:41.212Z,6.80
2018-04-28T01:09:18.252Z,6.63
2018-04-28T01:11:58.706Z,8.60
2018-04-28T01:14:37.650Z,8.37
2018-04-28T01:17:14.668Z,8.30
2018-04-28T01:19:55.605Z,8.37
2018-04-28T01:22:32.508Z,7.53
2018-04-28T01:25:09.574Z,7.33
2018-04-28T01:27:46.980Z,7.70
2018-04-28T01:30:24.730Z,6.40
2018-04-28T01:33:02.920Z,6.97
2018-04-28T01:35:42.810Z,7.30
2018-04-28T01:38:20.732Z,6.80
2018-04-28T01:40:58.223Z,6.00
2018-04-28T01:43:37.729Z,6.07
2018-04-28T01:46:15.059Z,8.17
2018-04-28T01:48:56.819Z,7.80
2018-04-28T01:51:34.512Z,7.03
2018-04-28T01:54:12.432Z,6.63
2018-04-28T01:56:50.606Z,6.67
2018-04-28T01:59:27.862Z,6.17
2018-04-28T02:02:06.049Z,6.03
2018-04-28T02:04:48.332Z,6.13
2018-04-28T02:07:26.019Z,5.93
2018-04-28T02:10:03.155Z,5.90
2018-04-28T02:12:49.124Z,5.50
2018-04-28T02:15:27.376Z,5.90
2018-04-28T02:18:04.534Z,5.43
2018-04-28T02:20:52.668Z,5.20
2018-04-28T02:23:30.254Z,5.80
2018-04-28T02:26:07.450Z,5.10
2018-04-28T02:28:46.963Z,5.73
2018-04-28T02:31:25.003Z,4.90
2018-04-28T02:34:02.577Z,4.60
2018-04-28T02:36:40.865Z,5.00
2018-04-28T02:39:18.065Z,4.40
2018-04-28T02:41:55.038Z,5.07
2018-04-28T02:44:31.926Z,4.60
2018-04-28T02:47:09.126Z,4.80
2018-04-28T02:49:46.127Z,4.77
2018-04-28T02:52:29.367Z,4.83
2018-04-28T02:55:06.447Z,4.30
2018-04-28T02:57:45.761Z,4.50
2018-04-28T03:00:23.088Z,4.60
2018-04-28T03:03:00.896Z,5.77
2018-04-28T03:05:40.427Z,3.90
2018-04-28T03:08:17.680Z,4.47
2018-04-28T03:10:54.806Z,4.30
2018-04-28T03:13:33.674Z,4.40
2018-04-28T03:16:10.708Z,4.40
2018-04-28T03:18:47.423Z,4.77
2018-04-28T03:21:27.853Z,4.27
2018-04-28T03:24:04.548Z,3.70
2018-04-28T03:26:43.012Z,4.00
2018-04-28T03:29:20.123Z,3.77
2018-04-28T03:31:56.593Z,4.13
2018-04-28T03:34:33.312Z,3.93
2018-04-28T03:37:11.144Z,4.10
2018-04-28T03:39:48.124Z,4.57
2018-04-28T03:42:25.421Z,4.07
2018-04-28T03:45:03.767Z,4.57
2018-04-28T03:47:41.521Z,4.80
2018-04-28T03:50:19.232Z,5.27
2018-04-28T03:52:56.110Z,4.80
2018-04-28T03:55:33.818Z,5.27
2018-04-28T04:00:28.037Z,5.57
2018-04-28T04:03:15.929Z,5.13
2018-04-28T04:05:55.255Z,5.37
2018-04-28T04:08:35.957Z,5.43
2018-04-28T04:11:17.448Z,4.87
2018-04-28T04:13:54.100Z,4.50
2018-04-28T04:16:37.524Z,4.97
2018-04-28T04:19:15.549Z,5.40
2018-04-28T04:21:53.336Z,5.43
2018-04-28T04:24:31.297Z,5.57
2018-04-28T04:27:08.726Z,5.80
2018-04-28T04:29:45.739Z,5.47
2018-04-28T04:32:22.685Z,5.63
2018-04-28T04:35:03.142Z,6.60
2018-04-28T04:37:40.132Z,5.50
2018-04-28T04:40:22.237Z,5.57
2018-04-28T04:43:00.914Z,5.40
2018-04-28T04:45:38.207Z,5.73
2018-04-28T04:48:17.273Z,5.53
2018-04-28T04:50:55.489Z,5.10
2018-04-28T04:53:33.720Z,4.87
2018-04-28T04:56:13.959Z,5.60
2018-04-28T04:58:50.734Z,5.33
2018-04-28T05:01:27.507Z,5.47
2018-04-28T05:04:06.597Z,5.30
2018-04-28T05:06:43.345Z,5.23
2018-04-28T05:09:26.507Z,5.17
2018-04-28T05:12:04.283Z,5.70
2018-04-28T05:14:45.890Z,5.87
2018-04-28T05:17:23.075Z,6.43
2018-04-28T05:20:02.278Z,6.00
2018-04-28T05:22:40.296Z,5.87
2018-04-28T05:25:23.382Z,5.37
2018-04-28T05:28:03.105Z,5.83
2018-04-28T05:30:42.067Z,4.97
2018-04-28T05:33:24.785Z,4.70
2018-04-28T05:36:04.965Z,4.60
2018-04-28T05:38:44.275Z,3.93
2018-04-28T05:41:28.110Z,4.00
2018-04-28T05:44:08.696Z,3.83
2018-04-28T05:46:54.020Z,4.40
2018-04-28T05:49:30.799Z,3.73
2018-04-28T05:52:09.437Z,3.80
2018-04-28T05:54:50.959Z,3.07
2018-04-28T05:57:29.383Z,3.10
2018-04-28T06:00:12.808Z,3.60
2018-04-28T06:02:50.434Z,2.50
2018-04-28T06:05:33.433Z,2.33
2018-04-28T06:08:13.667Z,3.10
2018-04-28T06:10:50.893Z,2.73
2018-04-28T06:13:34.569Z,2.60
2018-04-28T06:16:18.327Z,2.80
2018-04-28T06:18:57.181Z,3.00
2018-04-28T06:21:38.844Z,2.90
2018-04-28T06:24:16.757Z,3.00
2018-04-28T06:26:54.801Z,2.83
2018-04-28T06:29:37.900Z,2.80
2018-04-28T06:32:15.378Z,2.50
2018-04-28T06:34:55.019Z,2.57
2018-04-28T06:37:35.361Z,2.47
2018-04-28T06:40:15.270Z,2.27
2018-04-28T06:42:55.880Z,2.20
2018-04-28T06:45:36.007Z,2.40
2018-04-28T06:48:16.320Z,2.23
2018-04-28T06:50:54.116Z,2.47
2018-04-28T06:53:36.646Z,2.50
2018-04-28T06:56:18.133Z,2.90
2018-04-28T06:58:55.996Z,2.30
2018-04-28T07:01:37.732Z,2.60
2018-04-28T07:04:15.485Z,2.20
2018-04-28T07:06:57.391Z,2.33
2018-04-28T07:09:37.520Z,2.53
2018-04-28T07:12:22.949Z,3.07
2018-04-28T07:15:00.157Z,2.40
2018-04-28T07:17:37.954Z,2.80
2018-04-28T07:20:21.477Z,2.30
2018-04-28T07:23:01.663Z,2.63
2018-04-28T07:25:43.903Z,2.63
2018-04-28T07:28:23.631Z,2.40
2018-04-28T07:31:01.775Z,2.20
2018-04-28T07:33:48.714Z,2.10
2018-04-28T07:36:25.590Z,2.40
2018-04-28T07:41:59.196Z,2.30
2018-04-28T07:44:44.424Z,2.43
2018-04-28T07:47:24.978Z,2.43
2018-04-28T07:50:10.390Z,2.57
2018-04-28T07:52:47.404Z,2.30
2018-04-28T07:55:24.937Z,2.67
2018-04-28T07:58:06.912Z,2.40
2018-04-28T08:00:43.638Z,2.50
2018-04-28T08:03:25.612Z,2.50
2018-04-28T08:06:07.400Z,2.90
2018-04-28T08:08:44.507Z,2.23
2018-04-28T08:11:28.210Z,2.17
2018-04-28T08:14:07.201Z,2.80
2018-04-28T08:16:46.393Z,2.10
2018-04-28T08:19:35.341Z,2.57
2018-04-28T08:22:15.965Z,3.17
2018-04-28T08:24:56.261Z,2.40
2018-04-28T08:27:35.713Z,2.40
2018-04-28T08:30:13.641Z,2.30
2018-04-28T08:32:51.019Z,2.27
2018-04-28T08:35:32.855Z,2.33
2018-04-28T08:38:11.554Z,2.20
2018-04-28T08:40:49.281Z,2.37
2018-04-28T08:43:31.446Z,2.70
2018-04-28T08:46:08.959Z,2.50
2018-04-28T08:48:54.557Z,2.80
2018-04-28T08:51:31.239Z,2.53
2018-04-28T08:54:15.949Z,3.87
2018-04-28T08:56:53.555Z,3.13
2018-04-28T08:59:41.877Z,2.90
2018-04-28T09:02:23.316Z,2.70
2018-04-28T09:05:00.702Z,2.27
2018-04-28T09:07:41.192Z,3.00
2018-04-28T09:10:19.122Z,2.43
2018-04-28T09:12:56.531Z,3.50
2018-04-28T09:15:37.499Z,2.80
2018-04-28T09:18:14.469Z,3.50
2018-04-28T09:20:52.599Z,2.40
2018-04-28T09:23:31.681Z,2.00
2018-04-28T09:26:11.216Z,2.60
2018-04-28T09:28:52.222Z,2.67
2018-04-28T09:31:37.549Z,2.50
2018-04-28T09:34:15.338Z,2.83
2018-04-28T09:36:56.922Z,4.07
2018-04-28T09:39:36.353Z,2.83
2018-04-28T09:42:18.094Z,3.33
2018-04-28T09:44:55.222Z,2.80
2018-04-28T09:47:34.513Z,2.00
2018-04-28T09:50:14.097Z,3.43
2018-04-28T09:52:58.248Z,3.00
2018-04-28T09:55:36.572Z,2.77
2018-04-28T09:58:16.724Z,2.37
2018-04-28T10:00:57.653Z,2.73
2018-04-28T10:03:40.558Z,2.60
2018-04-28T10:06:17.516Z,2.30
2018-04-28T10:08:57.060Z,2.33
2018-04-28T10:11:36.113Z,2.50
2018-04-28T10:14:20.018Z,2.30
2018-04-28T10:16:59.851Z,2.50
2018-04-28T10:19:39.606Z,2.60
2018-04-28T10:22:27.106Z,2.57
2018-04-28T10:25:05.049Z,2.37
2018-04-28T10:27:45.219Z,2.33
2018-04-28T10:30:23.343Z,2.37
2018-04-28T10:33:01.347Z,2.60
2018-04-28T10:35:43.838Z,2.30
2018-04-28T10:38:24.775Z,2.50
2018-04-28T10:41:04.446Z,2.37
2018-04-28T10:43:44.629Z,2.73
2018-04-28T10:46:23.712Z,2.93
2018-04-28T10:49:04.147Z,2.30
2018-04-28T10:51:46.439Z,2.40
2018-04-28T10:54:27.183Z,2.60
2018-04-28T10:57:10.737Z,2.37
2018-04-28T10:59:48.601Z,2.50
2018-04-28T11:02:30.591Z,2.50
2018-04-28T11:05:07.352Z,2.40
2018-04-28T11:07:49.040Z,2.67
2018-04-28T11:10:26.677Z,2.80
2018-04-28T11:13:06.798Z,2.13
2018-04-28T11:15:48.747Z,2.93
2018-04-28T11:18:29.649Z,2.77
2018-04-28T11:21:10.863Z,3.27
2018-04-28T11:23:47.600Z,2.70
2018-04-28T11:26:33.071Z,2.47
2018-04-28T11:29:10.493Z,3.00
2018-04-28T11:31:48.095Z,3.13
2018-04-28T11:34:31.828Z,2.97
2018-04-28T11:37:08.415Z,2.67
2018-04-28T11:39:50.118Z,3.80
2018-04-28T11:42:30.861Z,3.10
2018-04-28T11:45:11.072Z,3.10
2018-04-28T11:47:54.664Z,2.80
2018-04-28T11:50:32.893Z,2.80
2018-04-28T11:53:13.492Z,3.33
2018-04-28T11:55:54.520Z,2.77
2018-04-28T11:58:35.185Z,2.70
2018-04-28T12:01:15.791Z,3.27
2018-04-28T12:03:56.496Z,3.23
2018-04-28T12:06:34.545Z,2.70
2018-04-28T12:09:14.025Z,3.07
2018-04-28T12:11:56.057Z,3.03
2018-04-28T12:14:40.591Z,2.90
2018-04-28T12:17:17.163Z,2.30
2018-04-28T12:19:59.030Z,3.40
2018-04-28T12:22:41.038Z,3.13
2018-04-28T12:25:17.978Z,2.70
2018-04-28T12:27:59.053Z,3.10
2018-04-28T12:30:36.232Z,2.93
2018-04-28T12:33:16.770Z,2.70
2018-04-28T12:35:57.499Z,2.93
2018-04-28T12:41:22.685Z,3.30
2018-04-28T12:44:00.684Z,2.53
2018-04-28T12:46:41.595Z,2.83
2018-04-28T12:49:18.813Z,2.73
2018-04-28T12:51:57.328Z,2.83
2018-04-28T12:54:37.446Z,2.50
2018-04-28T12:57:20.390Z,2.80
2018-04-28T12:59:59.262Z,2.77
2018-04-28T13:02:38.995Z,2.83
2018-04-28T13:05:23.002Z,3.13
2018-04-28T13:08:01.070Z,3.07
2018-04-28T13:10:41.696Z,3.03
2018-04-28T13:13:22.247Z,2.97
2018-04-28T13:16:02.187Z,2.93
2018-04-28T13:18:45.778Z,3.33
2018-04-28T13:21:22.793Z,3.70
2018-04-28T13:24:03.447Z,3.47
2018-04-28T13:26:42.136Z,3.57
2018-04-28T13:29:28.441Z,3.00
2018-04-28T13:32:05.263Z,2.73
2018-04-28T13:34:43.884Z,3.57
2018-04-28T13:37:25.965Z,2.63
2018-04-28T13:40:03.684Z,2.70
2018-04-28T13:42:44.407Z,2.77
2018-04-28T13:45:27.008Z,2.80
2018-04-28T13:48:04.977Z,2.60
2018-04-28T13:50:46.813Z,2.63
2018-04-28T13:53:25.814Z,2.83
2018-04-28T13:56:07.359Z,3.17
2018-04-28T13:58:47.012Z,2.77
2018-04-28T14:01:26.855Z,3.90
2018-04-28T14:04:07.779Z,2.80
2018-04-28T14:06:47.934Z,3.00
2018-04-28T14:09:31.431Z,3.33
2018-04-28T14:12:10.090Z,3.00
2018-04-28T14:14:52.917Z,3.40
2018-04-28T14:17:31.536Z,2.93
2018-04-28T14:20:10.955Z,2.70
2018-04-28T14:22:52.114Z,3.03
2018-04-28T14:25:32.727Z,2.90
2018-04-28T14:28:10.031Z,2.97
2018-04-28T14:30:51.787Z,3.20
2018-04-28T14:33:30.295Z,3.30
2018-04-28T14:36:10.518Z,2.60
2018-04-28T14:38:52.549Z,2.80
2018-04-28T14:41:32.638Z,3.03
2018-04-28T14:44:12.470Z,2.60
2018-04-28T14:46:50.959Z,3.50
2018-04-28T14:49:33.718Z,3.13
2018-04-28T14:52:12.361Z,3.70
2018-04-28T14:54:53.939Z,3.20
2018-04-28T14:57:34.380Z,3.50
2018-04-28T15:00:14.901Z,3.67
2018-04-28T15:02:59.137Z,3.53
2018-04-28T15:05:36.310Z,4.27
2018-04-28T15:08:17.946Z,3.60
2018-04-28T15:10:58.582Z,4.53
2018-04-28T15:13:35.932Z,3.10
2018-04-28T15:16:19.674Z,3.47
2018-04-28T15:18:57.425Z,3.73
2018-04-28T15:24:22.202Z,2.80
2018-04-28T15:27:01.568Z,3.10
2018-04-28T15:29:42.418Z,4.40
2018-04-28T15:32:19.372Z,3.67
2018-04-28T15:34:58.774Z,3.20
2018-04-28T15:37:42.351Z,2.87
2018-04-28T15:40:20.520Z,3.53
2018-04-28T15:42:59.338Z,3.27
2018-04-28T15:45:40.779Z,3.83
2018-04-28T15:48:21.980Z,3.60
2018-04-28T15:51:02.166Z,3.20
2018-04-28T15:53:41.862Z,3.27
2018-04-28T15:56:23.011Z,3.43
2018-04-28T15:59:08.262Z,3.10
2018-04-28T16:01:47.669Z,3.03
2018-04-28T16:04:25.312Z,3.07
2018-04-28T16:07:02.192Z,2.17
2018-04-28T16:09:41.682Z,3.00
2018-04-28T16:12:23.115Z,3.27
2018-04-28T16:15:11.915Z,2.97
2018-04-28T16:17:51.688Z,3.07
2018-04-28T16:20:28.617Z,3.83
2018-04-28T16:23:12.938Z,2.90
2018-04-28T16:25:52.414Z,3.20
2018-04-28T16:28:30.006Z,2.93
2018-04-28T16:31:13.527Z,3.10
2018-04-28T16:33:52.347Z,3.23
2018-04-28T16:36:29.851Z,3.67
2018-04-28T16:39:14.427Z,3.70
2018-04-28T16:41:54.894Z,3.07
2018-04-28T16:44:32.928Z,3.47
2018-04-28T16:47:13.010Z,3.40
2018-04-28T16:49:49.811Z,3.27
2018-04-28T16:52:33.187Z,3.60
2018-04-28T16:55:13.180Z,3.10
2018-04-28T16:57:50.900Z,3.53
2018-04-28T17:00:31.401Z,3.27
2018-04-28T17:03:10.866Z,3.20
2018-04-28T17:05:51.753Z,3.47
2018-04-28T17:08:30.998Z,3.10
2018-04-28T17:11:18.952Z,3.13
2018-04-28T17:13:58.783Z,5.00
2018-04-28T17:16:37.304Z,6.87
2018-04-28T17:19:20.066Z,4.97
2018-04-28T17:22:11.541Z,4.07
2018-04-28T17:27:37.600Z,3.90
2018-04-28T17:30:14.662Z,3.83
2018-04-28T17:33:00.711Z,4.10
2018-04-28T17:35:37.856Z,4.03
2018-04-28T17:38:14.525Z,2.73
2018-04-28T17:40:58.397Z,4.90
2018-04-28T17:43:36.417Z,4.10
2018-04-28T17:46:15.024Z,5.20
2018-04-28T17:48:59.294Z,4.73
2018-04-28T17:51:36.536Z,3.63
2018-04-28T17:54:16.297Z,3.57
2018-04-28T17:56:59.085Z,3.73
2018-04-28T17:59:39.888Z,8.30
2018-04-28T18:02:17.915Z,6.93
2018-04-28T18:05:01.857Z,5.07
2018-04-28T18:07:41.847Z,3.60
2018-04-28T18:13:18.003Z,4.13
2018-04-28T18:15:56.311Z,4.20
2018-04-28T18:18:38.757Z,3.20
2018-04-28T18:21:21.404Z,5.13
2018-04-28T18:23:59.900Z,5.30
2018-04-28T18:26:44.421Z,4.27
2018-04-28T18:32:25.674Z,3.70
2018-04-28T18:35:02.663Z,4.17
2018-04-28T18:37:39.792Z,4.70
2018-04-28T18:40:23.393Z,4.97
2018-04-28T18:43:07.991Z,5.07
2018-04-28T18:45:47.141Z,4.87
2018-04-28T18:48:38.720Z,5.17
2018-04-28T18:51:25.010Z,5.80
2018-04-28T18:54:04.240Z,5.30
2018-04-28T18:56:47.312Z,6.10
2018-04-28T18:59:24.790Z,10.57
2018-04-28T19:02:11.644Z,9.17
2018-04-28T19:05:07.031Z,9.17
2018-04-28T19:07:47.544Z,7.77
2018-04-28T19:10:51.737Z,7.77
2018-04-28T19:16:29.069Z,12.03
2018-04-28T19:19:09.328Z,15.77
2018-04-28T19:22:05.438Z,18.77
2018-04-28T19:24:59.355Z,18.93
2018-04-28T19:27:49.306Z,13.90
2018-04-28T19:33:25.809Z,12.40
2018-04-28T19:36:15.091Z,12.83
2018-04-28T20:17:50.113Z,17.07
2018-04-28T20:20:35.255Z,13.45
2018-04-28T20:23:31.790Z,11.93
2018-04-28T20:26:13.449Z,9.57
2018-04-28T20:28:59.108Z,7.30
2018-04-28T20:31:37.925Z,7.77
2018-04-28T20:34:16.292Z,8.50
2018-04-28T20:36:58.757Z,7.70
2018-04-28T20:39:36.030Z,8.03
2018-04-28T20:42:15.792Z,11.13
2018-04-28T20:45:10.332Z,8.67
2018-04-28T20:47:50.556Z,8.23
2018-04-28T20:50:36.138Z,9.60
2018-04-28T20:53:19.431Z,7.90
2018-04-28T20:55:57.041Z,8.23
2018-04-28T20:58:39.873Z,8.33
2018-04-28T21:01:20.225Z,7.83
2018-04-28T21:03:58.864Z,6.73
2018-04-28T21:06:41.590Z,7.27
2018-04-28T21:09:18.641Z,7.30
2018-04-28T21:11:59.252Z,7.13
2018-04-28T21:14:41.533Z,6.73
2018-04-28T21:17:20.176Z,8.30
2018-04-28T21:20:01.996Z,7.87
2018-04-28T21:22:40.459Z,7.50
2018-04-28T21:25:19.947Z,7.60
2018-04-28T21:28:02.333Z,7.17
2018-04-28T21:30:40.638Z,7.43
2018-04-28T21:33:22.105Z,8.83
2018-04-28T21:36:02.236Z,10.43
2018-04-28T21:38:42.601Z,8.77
2018-04-28T21:41:23.520Z,9.50
2018-04-28T21:44:02.396Z,9.20
2018-04-28T21:46:43.544Z,10.00
2018-04-28T21:49:23.554Z,9.70
2018-04-28T21:52:08.997Z,10.80
2018-04-28T21:54:46.053Z,11.47
2018-04-28T21:57:26.368Z,12.13
2018-04-28T22:00:04.742Z,11.03
2018-04-28T22:02:46.294Z,9.53
2018-04-28T22:05:26.349Z,8.77
2018-04-28T22:08:05.379Z,7.93
2018-04-28T22:10:51.546Z,8.00
2018-04-28T22:13:29.307Z,8.23
2018-04-28T22:16:06.417Z,8.27
2018-04-28T22:18:47.334Z,8.00
2018-04-28T22:21:27.750Z,7.33
2018-04-28T22:24:07.545Z,7.53
2018-04-28T22:26:48.116Z,8.03
2018-04-28T22:29:27.372Z,8.00
2018-04-28T22:32:06.891Z,8.83
2018-04-28T22:34:48.849Z,8.43
2018-04-28T22:37:27.414Z,7.73
2018-04-28T22:40:06.933Z,8.73
2018-04-28T22:42:48.608Z,7.77
2018-04-28T22:45:28.168Z,9.07
2018-04-28T22:48:07.240Z,8.00
2018-04-28T22:50:47.304Z,7.63
2018-04-28T22:53:26.887Z,9.03
2018-04-28T22:56:07.102Z,8.93
2018-04-28T22:58:51.122Z,8.70
2018-04-28T23:01:31.064Z,8.40
2018-04-28T23:04:09.912Z,8.40
2018-04-28T23:06:51.023Z,8.67
2018-04-28T23:09:30.422Z,8.80
2018-04-28T23:12:09.678Z,8.17
2018-04-28T23:14:47.381Z,8.23
2018-04-28T23:17:32.538Z,8.30
2018-04-28T23:20:12.174Z,8.00
2018-04-28T23:22:52.743Z,8.77
2018-04-28T23:25:29.510Z,8.43
2018-04-28T23:28:06.594Z,8.37
2018-04-28T23:30:44.156Z,8.53
2018-04-28T23:33:20.740Z,8.33
2018-04-28T23:35:57.569Z,8.27
2018-04-28T23:38:37.901Z,8.40
2018-04-28T23:41:14.933Z,8.57
2018-04-28T23:43:55.259Z,9.00
2018-04-28T23:46:37.485Z,8.10
2018-04-28T23:49:17.126Z,7.70
2018-04-28T23:51:54.287Z,8.33
2018-04-28T23:54:31.529Z,7.87
2018-04-28T23:57:10.314Z,7.83
2018-04-28T23:59:47.127Z,7.97
